PWSweather.com
Personal Weather Stations
Station Observations
MAHIABEACH
Mahia Beach, Mahia Peninsula Hawkes Bay -NZ 4108

Mahia BeachMahia Peninsula Hawkes Bay -NZ 4108

Lat: -39.087594, Lon: 177.87261128

Elevation: 20

Station Type: ScientificSales WS1093

http://wairoa.net/mahia/index.htm

Latest ConditionsUpdated 6:15:05 AM GMT+12:12 Saturday, Jul 26, 2014
Currently Today's Max Today's Min Today's Average
Temperature 49.1°F9.5°C 50.7°F10.4°C 48.4°F9.1°C 49.8°F9.9°C
Dew Point 45.1°F7.3°C 45.1°F7.3°C 41.4°F5.2°C 43.4°F6.3°C
Winds 11.5 mph SW18.5 kmh SW 17.0 mph S27.4 kmh S - 13.6 mph 21.9 kmh
Wind Gusts 22.1 mph35.6 kmh 39.6 mph63.7 kmh - -
Humidity 86% 86% 73% 79%
Pressure 30.08 in1018.6 mb 30.08 in1018.6 mb 30.02 in1016.6 mb -
Precipitation - 0.05 in1.3 mm - -
Hour Temp Dew Point Humidity Winds Wind Gusts Pressure Precip Precip Rate Daily Precip Total
06:15 AM 49.1°F9.5°C 45.1°F7.3°C 86% 11.5 mph SW18.5 kmh SW 22.1 mph35.6 kmh 30.08 in1018.6 mb 0.00 in0.0 mm 0.00 in/hr0.0 mm/hr 0.05 in1.3 mm
06:00 AM 49.1°F9.5°C 44.2°F6.8°C 83% 13.0 mph SW20.9 kmh SW 28.2 mph45.4 kmh 30.07 in1018.3 mb 0.00 in0.0 mm 0.00 in/hr0.0 mm/hr 0.05 in1.3 mm
05:45 AM 49.1°F9.5°C 44.5°F6.9°C 84% 9.9 mph S15.9 kmh S 22.1 mph35.6 kmh 30.06 in1017.9 mb 0.00 in0.0 mm 0.00 in/hr0.0 mm/hr 0.05 in1.3 mm
05:30 AM 49.6°F9.8°C 45.0°F7.2°C 84% 11.8 mph SW19.0 kmh SW 28.9 mph46.5 kmh 30.06 in1017.9 mb 0.00 in0.0 mm 0.00 in/hr0.0 mm/hr 0.05 in1.3 mm
05:15 AM 50.0°F10.0°C 44.7°F7.1°C 82% 12.7 mph SW20.4 kmh SW 28.2 mph45.4 kmh 30.05 in1017.6 mb 0.00 in0.0 mm 0.00 in/hr0.0 mm/hr 0.05 in1.3 mm
05:00 AM 50.4°F10.2°C 44.8°F7.1°C 81% 13.2 mph SW21.2 kmh SW 28.2 mph45.4 kmh 30.05 in1017.6 mb 0.00 in0.0 mm 0.00 in/hr0.0 mm/hr 0.05 in1.3 mm
04:45 AM 49.8°F9.9°C 42.2°F5.7°C 75% 11.1 mph SSW17.9 kmh SSW 28.9 mph46.5 kmh 30.04 in1017.3 mb 0.00 in0.0 mm 0.00 in/hr0.0 mm/hr 0.05 in1.3 mm
04:30 AM 49.6°F9.8°C 42.4°F5.8°C 76% 12.8 mph S20.6 kmh S 25.9 mph41.7 kmh 30.05 in1017.6 mb 0.00 in0.0 mm 0.00 in/hr0.0 mm/hr 0.05 in1.3 mm
04:15 AM 49.5°F9.7°C 43.6°F6.4°C 80% 12.5 mph S20.1 kmh S 29.8 mph48.0 kmh 30.04 in1017.3 mb 0.00 in0.0 mm 0.00 in/hr0.0 mm/hr 0.05 in1.3 mm
04:00 AM 48.9°F9.4°C 44.6°F7.0°C 85% 12.6 mph SSW20.3 kmh SSW 28.2 mph45.4 kmh 30.05 in1017.6 mb 0.00 in0.0 mm 0.00 in/hr0.0 mm/hr 0.05 in1.3 mm
03:45 AM 48.9°F9.4°C 41.4°F5.2°C 75% 15.3 mph S24.6 kmh S 33.6 mph54.1 kmh 30.04 in1017.3 mb 0.00 in0.0 mm 0.00 in/hr0.0 mm/hr 0.05 in1.3 mm
03:30 AM 49.3°F9.6°C 43.1°F6.2°C 79% 13.4 mph S21.6 kmh S 31.1 mph50.1 kmh 30.04 in1017.3 mb 0.00 in0.0 mm 0.00 in/hr0.0 mm/hr 0.05 in1.3 mm
03:15 AM 49.8°F9.9°C 43.6°F6.4°C 79% 12.9 mph SSW20.8 kmh SSW 27.3 mph43.9 kmh 30.04 in1017.3 mb 0.00 in0.0 mm 0.00 in/hr0.0 mm/hr 0.05 in1.3 mm
03:00 AM 49.3°F9.6°C 42.7°F5.9°C 78% 14.8 mph S23.8 kmh S 27.3 mph43.9 kmh 30.04 in1017.3 mb 0.00 in0.0 mm 0.00 in/hr0.0 mm/hr 0.05 in1.3 mm
02:45 AM 50.4°F10.2°C 44.1°F6.7°C 79% 13.6 mph SSW21.9 kmh SSW 30.4 mph48.9 kmh 30.04 in1017.3 mb 0.01 in0.3 mm 0.00 in/hr0.0 mm/hr 0.05 in1.3 mm
02:30 AM 50.2°F10.1°C 44.3°F6.8°C 80% 11.8 mph SSW19.0 kmh SSW 29.8 mph48.0 kmh 30.04 in1017.3 mb 0.01 in0.3 mm 0.00 in/hr0.0 mm/hr 0.05 in1.3 mm
02:15 AM 50.0°F10.0°C 41.7°F5.4°C 73% 13.5 mph SSW21.7 kmh SSW 28.9 mph46.5 kmh 30.03 in1016.9 mb 0.01 in0.3 mm 0.00 in/hr0.0 mm/hr 0.05 in1.3 mm
02:00 AM 50.2°F10.1°C 43.6°F6.4°C 78% 13.5 mph SW21.7 kmh SW 33.6 mph54.1 kmh 30.03 in1016.9 mb 0.05 in1.3 mm 0.01 in/hr0.3 mm/hr 0.05 in1.3 mm
01:45 AM 50.0°F10.0°C 41.7°F5.4°C 73% 16.7 mph S26.9 kmh S 30.4 mph48.9 kmh 30.03 in1016.9 mb 0.04 in1.0 mm 0.00 in/hr0.0 mm/hr 0.04 in1.0 mm
01:30 AM 49.5°F9.7°C 41.9°F5.5°C 75% 16.0 mph S25.7 kmh S 34.9 mph56.2 kmh 30.03 in1016.9 mb 0.04 in1.0 mm 0.00 in/hr0.0 mm/hr 0.04 in1.0 mm
01:15 AM 48.4°F9.1°C 42.2°F5.7°C 79% 17.0 mph S27.4 kmh S 39.6 mph63.7 kmh 30.02 in1016.6 mb 0.04 in1.0 mm 0.16 in/hr4.1 mm/hr 0.04 in1.0 mm
01:00 AM 50.4°F10.2°C 42.4°F5.8°C 74% 14.8 mph S23.8 kmh S 34.9 mph56.2 kmh 30.03 in1016.9 mb 0.00 in0.0 mm 0.00 in/hr0.0 mm/hr 0.00 in0.0 mm
12:45 AM 50.4°F10.2°C 43.8°F6.6°C 78% 14.0 mph SW22.5 kmh SW 29.8 mph48.0 kmh 30.02 in1016.6 mb 0.00 in0.0 mm 0.00 in/hr0.0 mm/hr 0.00 in0.0 mm
12:30 AM 50.4°F10.2°C 43.4°F6.3°C 77% 15.5 mph S24.9 kmh S 35.8 mph57.6 kmh 30.02 in1016.6 mb 0.00 in0.0 mm 0.00 in/hr0.0 mm/hr 0.00 in0.0 mm
12:15 AM 50.7°F10.4°C 43.4°F6.3°C 76% 16.6 mph SW26.7 kmh SW 33.6 mph54.1 kmh 30.02 in1016.6 mb 0.00 in0.0 mm 0.00 in/hr0.0 mm/hr 0.00 in0.0 mm
12:00 AM 50.5°F10.3°C 43.6°F6.4°C 77% 14.3 mph SW23.0 kmh SW 31.1 mph50.1 kmh 30.02 in1016.6 mb 0.00 in0.0 mm 0.00 in/hr0.0 mm/hr 0.00 in0.0 mm